Vindinge, Denmark
Current Conditions -  °F | °C
As of 6:50 PM on Tuesday 21 Oct 2014 (Local Time) from EKRK Reporting Station
Light Rain Light Rain  
Wind Chill: 54°   Ceiling: 5500
Heat Index: 54°   Visibility: 4mi
Dew Point: 52°   Wind: 8mph
Humidity: 94%   Direction: 150°SSE
Pressure: 29.41"   Gusts: NA
Location:  55.62°N, 12.14°E
Report Text: EKRK 211650Z AUTO 15007KT 7000NDV -RA FEW035/// BKN055///BKN070/// 12/11 Q0996
Loading
Personal Weather Stations






























Interactive Weather Map
Tropical Storm Tracking
New forecast layout! Learn more

10-Day Weather Forecast

Advertisements
Track Severe Weather on mobile